createdAt,value
2022-12-01T00:00:42.207Z,27.7
2022-12-01T00:02:48.110Z,22.8
2022-12-01T00:03:52.338Z,25.3
2022-12-01T00:05:58.174Z,25.1
2022-12-01T00:08:03.909Z,24.4
2022-12-01T00:10:09.590Z,24.4
2022-12-01T00:12:18.433Z,23.9
2022-12-01T00:14:24.169Z,23.6
2022-12-01T00:16:29.976Z,25.9
2022-12-01T00:18:35.637Z,22.9
2022-12-01T00:22:47.165Z,26.8
2022-12-01T00:24:52.900Z,24.6
2022-12-01T00:27:01.737Z,28
2022-12-01T00:29:07.482Z,25.9
2022-12-01T00:31:13.207Z,26.7
2022-12-01T00:33:18.945Z,26.7
2022-12-01T00:35:24.678Z,30.1
2022-12-01T00:37:30.406Z,30.5
2022-12-01T00:39:36.132Z,32
2022-12-01T00:41:44.973Z,26.2
2022-12-01T00:43:50.703Z,25.8
2022-12-01T00:45:56.570Z,25.2
2022-12-01T00:48:02.171Z,29.1
2022-12-01T00:50:07.933Z,28
2022-12-01T00:52:13.690Z,25.9
2022-12-01T00:54:19.438Z,25.3
2022-12-01T00:56:28.236Z,26.8
2022-12-01T00:58:33.981Z,24.2
2022-12-01T01:00:39.772Z,25.7
2022-12-01T01:03:49.938Z,25.4
2022-12-01T01:08:01.512Z,25.6
2022-12-01T01:10:10.259Z,28.6
2022-12-01T01:12:15.987Z,25.7
2022-12-01T01:14:21.723Z,30.1
2022-12-01T01:16:27.553Z,24.5
2022-12-01T01:18:33.174Z,23.3
2022-12-01T01:20:38.930Z,24.6
2022-12-01T01:22:44.643Z,24.1
2022-12-01T01:24:53.492Z,23.9
2022-12-01T01:26:59.252Z,24.7
2022-12-01T01:29:04.973Z,27.2
2022-12-01T01:31:10.771Z,25.7
2022-12-01T01:33:16.479Z,24.4
2022-12-01T01:37:27.976Z,26.8
2022-12-01T01:39:36.787Z,29.4
2022-12-01T01:41:42.530Z,25.5
2022-12-01T01:43:48.294Z,25.8
2022-12-01T01:45:54.104Z,29.4
2022-12-01T01:47:59.788Z,28.9
2022-12-01T01:50:05.506Z,26.4
2022-12-01T01:52:11.215Z,29.9
2022-12-01T01:54:20.054Z,28.9
2022-12-01T02:01:03.159Z,32.3
2022-12-01T02:03:08.802Z,31
2022-12-01T02:05:14.604Z,27.9
2022-12-01T02:07:23.423Z,29.8
2022-12-01T02:09:29.138Z,27.2
2022-12-01T02:11:34.864Z,33.8
2022-12-01T02:13:40.616Z,34.1
2022-12-01T02:15:46.367Z,28.9
2022-12-01T02:17:52.113Z,32.8
2022-12-01T02:19:57.844Z,30
2022-12-01T02:22:06.683Z,30
2022-12-01T02:24:12.425Z,28
2022-12-01T02:26:18.170Z,28.3
2022-12-01T02:28:23.926Z,32
2022-12-01T02:30:29.705Z,27.7
2022-12-01T02:32:35.401Z,27.5
2022-12-01T02:34:41.161Z,27.8
2022-12-01T02:36:49.947Z,26.6
2022-12-01T02:38:55.705Z,27.3
2022-12-01T02:41:01.436Z,26.7
2022-12-01T02:43:07.166Z,27.5
2022-12-01T02:45:12.906Z,28.5
2022-12-01T02:47:18.648Z,26.1
2022-12-01T02:49:24.377Z,27.6
2022-12-01T02:51:33.159Z,29.1
2022-12-01T02:53:38.926Z,25.1
2022-12-01T02:55:44.649Z,32.1
2022-12-01T02:56:49.091Z,32.3
2022-12-01T02:58:54.815Z,30.2
2022-12-01T03:01:00.626Z,28.7
2022-12-01T03:03:06.369Z,28.9
2022-12-01T03:05:15.116Z,32.5
2022-12-01T03:07:20.937Z,28.1
2022-12-01T03:09:26.617Z,25.7
2022-12-01T03:11:32.382Z,28.2
2022-12-01T03:13:38.118Z,25.8
2022-12-01T03:15:44.067Z,29.2
2022-12-01T03:17:49.446Z,29.9
2022-12-01T03:19:58.246Z,29.1
2022-12-01T03:22:04.006Z,26.1
2022-12-01T03:24:09.699Z,27
2022-12-01T03:26:15.458Z,27.9
2022-12-01T03:32:32.691Z,26.1
2022-12-01T03:34:41.517Z,29.7
2022-12-01T03:45:10.181Z,26.1
2022-12-01T03:47:15.921Z,27.3
2022-12-01T03:49:24.771Z,25.6
2022-12-01T03:51:30.394Z,27.2
2022-12-01T03:53:36.152Z,23.5
2022-12-01T04:05:12.252Z,27.3
2022-12-01T04:07:18.009Z,26.6
2022-12-01T04:09:23.746Z,24.9
2022-12-01T04:11:32.587Z,26.8
2022-12-01T04:13:35.220Z,28.4
2022-12-01T04:15:41.033Z,26.2
2022-12-01T04:17:49.741Z,25
2022-12-01T04:19:55.489Z,25.9
2022-12-01T04:22:01.236Z,24.5
2022-12-01T04:24:06.939Z,27.9
2022-12-01T04:26:15.581Z,27.2
2022-12-01T04:28:18.422Z,24
2022-12-01T04:32:32.993Z,26.1
2022-12-01T04:36:44.463Z,27.2
2022-12-01T04:38:50.228Z,27.7
2022-12-01T04:40:55.959Z,27.8
2022-12-01T04:43:01.683Z,30.3
2022-12-01T04:45:07.427Z,27.4
2022-12-01T04:49:21.975Z,26.2
2022-12-01T04:51:27.734Z,27.8
2022-12-01T04:52:35.265Z,29.1
2022-12-01T04:54:37.868Z,29.3
2022-12-01T04:56:43.583Z,28.6
2022-12-01T04:58:50.911Z,25.8
2022-12-01T05:00:59.720Z,30.9
2022-12-01T05:03:05.594Z,29.3
2022-12-01T05:05:11.166Z,32.4
2022-12-01T05:09:22.653Z,33
2022-12-01T05:13:34.136Z,27.9
2022-12-01T05:15:42.959Z,33.4
2022-12-01T05:17:48.702Z,30.9
2022-12-01T05:19:54.428Z,29.4
2022-12-01T05:22:00.219Z,28.6
2022-12-01T05:24:05.916Z,29.3
2022-12-01T05:26:11.652Z,27.9
2022-12-01T05:28:17.381Z,27.2
2022-12-01T05:30:28.795Z,30.5
2022-12-01T05:32:31.938Z,28.3
2022-12-01T05:34:37.649Z,29.8
2022-12-01T05:36:43.413Z,30.9
2022-12-01T05:38:49.138Z,31.5
2022-12-01T05:40:54.857Z,31.1
2022-12-01T05:43:00.595Z,31.7
2022-12-01T05:45:09.376Z,36.8
2022-12-01T05:47:15.126Z,29
2022-12-01T05:49:20.865Z,27.5
2022-12-01T05:56:03.875Z,30.1
2022-12-01T06:02:24.185Z,31.6
2022-12-01T06:04:29.925Z,28.9
2022-12-01T06:06:35.603Z,30.8
2022-12-01T06:08:41.330Z,31.8
2022-12-01T06:10:47.055Z,33.2
2022-12-01T06:15:01.623Z,32.1
2022-12-01T06:17:07.339Z,28.8
2022-12-01T06:19:13.059Z,27.2
2022-12-01T06:21:18.792Z,32.3
2022-12-01T06:23:29.983Z,25.8
2022-12-01T06:25:30.272Z,30.1
2022-12-01T06:27:39.072Z,30.3
2022-12-01T06:29:44.812Z,26.1
2022-12-01T06:31:50.564Z,28
2022-12-01T06:33:56.285Z,31.3
2022-12-01T06:36:02.016Z,28
2022-12-01T06:38:07.761Z,29.4
2022-12-01T06:40:13.485Z,32.7
2022-12-01T06:42:22.296Z,32.1
2022-12-01T06:46:33.800Z,28.2
2022-12-01T06:47:38.162Z,30
2022-12-01T06:49:43.905Z,29.8
2022-12-01T06:51:49.645Z,28.8
2022-12-01T06:53:55.377Z,29.7
2022-12-01T06:56:04.225Z,31
2022-12-01T06:58:09.949Z,27.8
2022-12-01T07:00:15.673Z,27.7
2022-12-01T07:02:21.515Z,28.3
2022-12-01T07:04:27.153Z,30
2022-12-01T07:06:32.873Z,27.1
2022-12-01T07:08:38.611Z,28.9
2022-12-01T07:10:47.416Z,29.9
2022-12-01T07:12:53.137Z,31.3
2022-12-01T07:14:58.891Z,30
2022-12-01T07:17:04.693Z,32.4
2022-12-01T07:19:10.388Z,29.7
2022-12-01T07:21:16.094Z,31.1
2022-12-01T07:23:21.850Z,34.6
2022-12-01T07:25:30.660Z,34.3
2022-12-01T07:27:36.401Z,30.9
2022-12-01T07:29:42.161Z,31.7
2022-12-01T07:31:47.892Z,32.5
2022-12-01T07:33:53.603Z,29.6
2022-12-01T07:35:59.462Z,31.5
2022-12-01T07:38:05.088Z,32.2
2022-12-01T07:40:14.202Z,35.5
2022-12-01T07:42:19.612Z,29.8
2022-12-01T07:44:25.345Z,29.2
2022-12-01T07:45:29.760Z,33.3
2022-12-01T07:49:41.269Z,34.4
2022-12-01T07:51:46.951Z,31.3
2022-12-01T07:53:55.770Z,33.6
2022-12-01T07:56:05.663Z,30.3
2022-12-01T08:00:12.970Z,29.7
2022-12-01T08:02:18.818Z,31.7
2022-12-01T08:04:24.439Z,30.7
2022-12-01T08:08:38.976Z,31.6
2022-12-01T08:10:44.694Z,32
2022-12-01T08:12:50.409Z,33
2022-12-01T08:14:56.155Z,30.6
2022-12-01T08:17:01.877Z,30.1
2022-12-01T08:19:07.618Z,30.2
2022-12-01T08:23:22.161Z,36.1
2022-12-01T08:27:33.601Z,32.4
2022-12-01T08:33:50.793Z,35.7
2022-12-01T08:35:56.519Z,35.7
2022-12-01T08:38:05.324Z,32.8
2022-12-01T08:40:11.067Z,34.4
2022-12-01T08:43:49.451Z,32.8
2022-12-01T08:45:26.945Z,35.8
2022-12-01T08:47:32.656Z,31.4
2022-12-01T08:49:38.442Z,34.7
2022-12-01T08:51:47.206Z,30.9
2022-12-01T08:53:52.950Z,33
2022-12-01T08:55:58.670Z,32.4
2022-12-01T08:58:04.413Z,32.7
2022-12-01T09:00:10.202Z,33.2
2022-12-01T09:02:15.957Z,31.4
2022-12-01T09:04:21.650Z,32.9
2022-12-01T09:06:30.456Z,34.1
2022-12-01T09:08:36.212Z,33.1
2022-12-01T09:10:41.942Z,34.7
2022-12-01T09:12:47.693Z,32.3
2022-12-01T09:14:53.451Z,33.6
2022-12-01T09:16:59.169Z,34
2022-12-01T09:19:04.913Z,31.8
2022-12-01T09:21:13.735Z,37.6
2022-12-01T09:25:25.217Z,35.1
2022-12-01T09:27:30.966Z,33.8
2022-12-01T09:29:36.728Z,36
2022-12-01T09:31:42.512Z,35.5
2022-12-01T09:33:48.218Z,34.8
2022-12-01T09:35:57.021Z,34.5
2022-12-01T09:38:02.770Z,36.2
2022-12-01T09:40:08.545Z,34.2
2022-12-01T09:42:40.085Z,33.9
2022-12-01T09:44:45.792Z,36.2
2022-12-01T09:46:51.630Z,32.5
2022-12-01T09:49:00.377Z,32.3
2022-12-01T09:53:11.883Z,31.4
2022-12-01T09:55:17.611Z,32.8
2022-12-01T09:57:23.339Z,30.8
2022-12-01T10:01:34.906Z,36.1
2022-12-01T10:03:43.661Z,32.9
2022-12-01T10:06:18.621Z,33.3
2022-12-01T10:07:55.194Z,30.7
2022-12-01T10:10:00.900Z,34.1
2022-12-01T10:12:06.673Z,32.4
2022-12-01T10:14:17.978Z,33.3
2022-12-01T10:16:18.205Z,32.6
2022-12-01T10:20:32.712Z,35
2022-12-01T10:24:44.205Z,29.6
2022-12-01T10:26:49.937Z,31
2022-12-01T10:28:55.668Z,29.9
2022-12-01T10:31:01.428Z,33.1
2022-12-01T10:33:10.232Z,33.6
2022-12-01T10:35:15.990Z,33
2022-12-01T10:37:21.817Z,35
2022-12-01T10:38:26.150Z,33.5
2022-12-01T10:40:31.899Z,32.2
2022-12-01T10:42:37.666Z,31.2
2022-12-01T10:44:43.413Z,33.6
2022-12-01T10:46:52.197Z,35.9
2022-12-01T10:55:15.228Z,30.3
2022-12-01T10:57:21.000Z,36.5
2022-12-01T10:59:26.723Z,32.6
2022-12-01T11:01:37.369Z,33
2022-12-01T11:03:42.953Z,37.2
2022-12-01T11:05:48.653Z,38.5
2022-12-01T11:07:54.469Z,34.6
2022-12-01T11:10:00.179Z,36
2022-12-01T11:12:05.934Z,37.8
2022-12-01T11:14:11.694Z,31.8
2022-12-01T11:16:20.591Z,33.1
2022-12-01T11:18:26.293Z,33.2
2022-12-01T11:20:32.132Z,38.5
2022-12-01T11:22:37.793Z,33.1
2022-12-01T11:24:43.568Z,36.6
2022-12-01T11:26:49.330Z,34.5
2022-12-01T11:28:55.096Z,31.2
2022-12-01T11:36:19.895Z,33.3
2022-12-01T11:38:30.103Z,30.5
2022-12-01T11:40:31.407Z,32.3
2022-12-01T11:42:37.185Z,30.6
2022-12-01T11:44:51.931Z,34.1
2022-12-01T11:47:07.801Z,30.8
2022-12-01T11:48:57.565Z,32.1
2022-12-01T11:51:03.348Z,30.2
2022-12-01T11:57:33.872Z,31.5
2022-12-01T11:59:29.440Z,34.9
2022-12-01T12:01:35.214Z,35.4
2022-12-01T12:03:41.043Z,31.7
2022-12-01T12:05:46.774Z,30.4
2022-12-01T12:07:52.673Z,31.8
2022-12-01T12:09:58.338Z,30.7
2022-12-01T12:12:04.116Z,30.6
2022-12-01T12:14:12.933Z,32.4
2022-12-01T12:16:18.699Z,32.3
2022-12-01T12:18:24.469Z,33.1
2022-12-01T12:20:30.230Z,35.2
2022-12-01T12:22:35.989Z,30.3
2022-12-01T12:24:41.770Z,35.8
2022-12-01T12:26:47.540Z,33.8
2022-12-01T12:28:56.341Z,31.9
2022-12-01T12:31:02.660Z,30.6
2022-12-01T12:34:12.610Z,33.8
2022-12-01T12:36:18.358Z,31
2022-12-01T12:44:44.515Z,34.7
2022-12-01T12:46:50.384Z,33
2022-12-01T12:49:18.734Z,31.2
2022-12-01T12:51:02.047Z,30.4
2022-12-01T12:53:07.636Z,31.2
2022-12-01T12:55:13.409Z,34
2022-12-01T13:01:33.927Z,28.9
2022-12-01T13:05:45.343Z,31.1
2022-12-01T13:07:51.188Z,24.5
2022-12-01T13:10:00.547Z,28.7
2022-12-01T13:12:05.742Z,29.6
2022-12-01T13:14:11.513Z,32.4
2022-12-01T13:16:17.502Z,30.6
2022-12-01T13:18:23.271Z,30.1
2022-12-01T13:20:28.823Z,32.2
2022-12-01T13:22:34.568Z,25.7
2022-12-01T13:24:40.352Z,28.8
2022-12-01T13:26:49.160Z,26.6
2022-12-01T13:28:54.958Z,28.2
2022-12-01T13:33:32.297Z,28.1
2022-12-01T13:35:38.079Z,25.4
2022-12-01T13:37:43.841Z,25.1
2022-12-01T13:39:52.705Z,28.8
2022-12-01T13:44:04.221Z,27.1
2022-12-01T13:46:10.086Z,25.6
2022-12-01T13:48:15.797Z,28
2022-12-01T13:52:27.373Z,27.5
2022-12-01T13:54:36.225Z,31.8
2022-12-01T13:56:42.669Z,25.2
2022-12-01T13:58:48.451Z,22.2
2022-12-01T14:00:54.277Z,24.6
2022-12-01T14:03:00.118Z,24.4
2022-12-01T14:05:05.841Z,25.6
2022-12-01T14:07:11.581Z,25.8
2022-12-01T14:09:20.447Z,27
2022-12-01T14:11:26.234Z,22.7
2022-12-01T14:13:32.029Z,25.6
2022-12-01T14:15:37.789Z,25.1
2022-12-01T14:17:43.684Z,25.3
2022-12-01T14:19:49.369Z,26
2022-12-01T14:21:55.747Z,24
2022-12-01T14:24:04.621Z,24.8
2022-12-01T14:26:10.407Z,28.6
2022-12-01T14:28:16.191Z,27.8
2022-12-01T14:29:20.578Z,25.7
2022-12-01T14:31:26.408Z,25.7
2022-12-01T14:33:32.151Z,29.2
2022-12-01T14:35:37.925Z,26.5
2022-12-01T14:37:46.748Z,28.4
2022-12-01T14:39:52.533Z,24.2
2022-12-01T14:41:58.305Z,27.5
2022-12-01T14:44:04.077Z,25.9
2022-12-01T14:46:09.841Z,26.4
2022-12-01T14:48:15.612Z,28.9
2022-12-01T14:50:21.362Z,25.3
2022-12-01T14:52:30.298Z,28
2022-12-01T14:58:47.549Z,27.1
2022-12-01T15:02:59.066Z,29
2022-12-01T15:05:04.851Z,25
2022-12-01T15:09:34.381Z,24
2022-12-01T15:11:25.202Z,26.7
2022-12-01T15:13:30.988Z,26.1
2022-12-01T15:15:36.749Z,27.9
2022-12-01T15:17:42.509Z,26.7
2022-12-01T15:19:48.715Z,27.6
2022-12-01T15:21:57.093Z,27.1
2022-12-01T15:24:02.865Z,33.5
2022-12-01T15:26:08.648Z,28
2022-12-01T15:29:18.791Z,28.5
2022-12-01T15:31:24.693Z,26.7
2022-12-01T15:33:35.424Z,31.4
2022-12-01T15:35:39.177Z,27.9
2022-12-01T15:37:44.960Z,27.6
2022-12-01T15:39:50.697Z,31.6
2022-12-01T15:41:56.450Z,28.6
2022-12-01T15:44:02.187Z,27.2
2022-12-01T15:46:07.991Z,29.1
2022-12-01T15:48:13.713Z,28.3
2022-12-01T15:52:28.310Z,29.1
2022-12-01T15:56:39.808Z,27.4
2022-12-01T15:58:45.575Z,26.7
2022-12-01T16:02:57.210Z,27.8
2022-12-01T16:05:05.929Z,27.7
2022-12-01T16:09:17.431Z,26.9
2022-12-01T16:13:28.963Z,27.8
2022-12-01T16:15:34.770Z,27.5
2022-12-01T16:17:40.517Z,29.4
2022-12-01T16:19:49.391Z,26.2
2022-12-01T16:21:55.134Z,27.1
2022-12-01T16:25:05.308Z,27.2
2022-12-01T16:27:11.074Z,29.3
2022-12-01T16:29:16.973Z,28.2
2022-12-01T16:31:22.675Z,29.5
2022-12-01T16:33:31.437Z,30.5
2022-12-01T16:35:37.202Z,28.5
2022-12-01T16:37:42.961Z,26
2022-12-01T16:39:48.715Z,30.9
2022-12-01T16:41:54.498Z,32.2
2022-12-01T16:44:27.144Z,26.2
2022-12-01T16:46:06.083Z,27.7
2022-12-01T16:48:14.827Z,28.6
2022-12-01T16:50:20.579Z,27.1
2022-12-01T16:52:45.531Z,30.4
2022-12-01T16:54:32.109Z,27.1
2022-12-01T16:56:37.884Z,26.3
2022-12-01T17:03:00.003Z,29.6
2022-12-01T17:05:05.567Z,29
2022-12-01T17:07:11.326Z,30.5
2022-12-01T17:09:17.092Z,28.2
2022-12-01T17:17:43.212Z,33.2
2022-12-01T17:19:48.953Z,29.1
2022-12-01T17:21:54.705Z,32.2
2022-12-01T17:24:26.272Z,31.5
2022-12-01T17:26:32.023Z,27.6
2022-12-01T17:28:37.784Z,29
2022-12-01T17:30:46.657Z,31.2
2022-12-01T17:32:52.372Z,26.9
2022-12-01T17:34:58.127Z,30.8
2022-12-01T17:39:09.628Z,28.4
2022-12-01T17:43:21.155Z,30.7
2022-12-01T17:45:29.996Z,34
2022-12-01T17:47:35.729Z,29.4
2022-12-01T17:49:41.518Z,26.2
2022-12-01T17:51:47.304Z,27.4
2022-12-01T17:55:58.761Z,26.9
2022-12-01T17:58:04.533Z,28.1
2022-12-01T18:02:19.074Z,29.9
2022-12-01T18:04:24.807Z,28.7
2022-12-01T18:06:30.562Z,24.6
2022-12-01T18:08:36.315Z,28.6
2022-12-01T18:10:42.053Z,27.7
2022-12-01T18:12:48.077Z,28.5
2022-12-01T18:14:56.649Z,27.1
2022-12-01T18:17:02.387Z,27
2022-12-01T18:19:08.140Z,26.8
2022-12-01T18:20:12.585Z,27.1
2022-12-01T18:22:18.327Z,27.2
2022-12-01T18:24:24.090Z,29.6
2022-12-01T18:26:29.814Z,25.8
2022-12-01T18:28:38.658Z,24.8
2022-12-01T18:30:44.431Z,27.3
2022-12-01T18:32:50.155Z,25.6
2022-12-01T18:34:55.905Z,26.3
2022-12-01T18:37:01.635Z,25.3
2022-12-01T18:39:07.391Z,26.1
2022-12-01T18:41:13.136Z,30.5
2022-12-01T18:43:21.976Z,28.5
2022-12-01T18:45:27.732Z,28.7
2022-12-01T18:47:33.461Z,27.8
2022-12-01T18:49:39.246Z,27.9
2022-12-01T18:51:45.003Z,28.8
2022-12-01T18:53:50.766Z,28
2022-12-01T18:55:56.519Z,28.9
2022-12-01T18:58:05.350Z,31.5
2022-12-01T19:00:11.085Z,30.8
2022-12-01T19:02:16.947Z,28.8
2022-12-01T19:04:22.636Z,32.4
2022-12-01T19:06:28.359Z,31.2
2022-12-01T19:08:34.091Z,32.9
2022-12-01T19:10:39.872Z,30.6
2022-12-01T19:12:48.681Z,32
2022-12-01T19:14:54.425Z,33.9
2022-12-01T19:17:00.168Z,31.6
2022-12-01T19:20:10.356Z,33.3
2022-12-01T19:22:16.118Z,36.5
2022-12-01T19:24:21.844Z,32.8
2022-12-01T19:26:30.670Z,30.7
2022-12-01T19:28:36.426Z,34.2
2022-12-01T19:30:46.737Z,28.6
2022-12-01T19:32:47.899Z,31.5
2022-12-01T19:34:53.665Z,33.9
2022-12-01T19:39:07.759Z,35.4
2022-12-01T19:43:19.724Z,37.2
2022-12-01T19:45:25.445Z,33.5
2022-12-01T19:49:36.945Z,33.9
2022-12-01T19:51:42.687Z,31.2
2022-12-01T19:53:48.417Z,33.4
2022-12-01T20:06:26.014Z,32.6
2022-12-01T20:08:35.569Z,32
2022-12-01T20:12:46.355Z,35.3
2022-12-01T20:14:52.462Z,33.1
2022-12-01T20:15:56.433Z,38
2022-12-01T20:20:07.950Z,37.1
2022-12-01T20:22:13.689Z,37.8
2022-12-01T20:24:22.511Z,37.2
2022-12-01T20:26:30.573Z,37.9
2022-12-01T20:28:33.994Z,38.3
2022-12-01T20:30:39.750Z,37
2022-12-01T20:32:45.459Z,36.1
2022-12-01T20:34:51.643Z,34.8
2022-12-01T20:36:56.944Z,37.1
2022-12-01T20:39:05.777Z,35.4
2022-12-01T20:41:11.550Z,37.2
2022-12-01T20:43:17.251Z,35.7
2022-12-01T20:45:23.023Z,39.2
2022-12-01T20:47:28.749Z,39.9
2022-12-01T20:49:34.465Z,34.9
2022-12-01T20:51:40.231Z,35.3
2022-12-01T20:54:12.341Z,41.5
2022-12-01T20:55:54.761Z,37.3
2022-12-01T20:58:00.508Z,38.3
2022-12-01T21:00:06.405Z,36.2
2022-12-01T21:02:12.010Z,37.1
2022-12-01T21:04:17.698Z,38.5
2022-12-01T21:06:23.446Z,34.8
2022-12-01T21:08:32.274Z,39.7
2022-12-01T21:10:37.987Z,37.6
2022-12-01T21:12:43.702Z,36.5
2022-12-01T21:15:15.219Z,40.1
2022-12-01T21:17:20.983Z,34.1
2022-12-01T21:19:26.726Z,36.2
2022-12-01T21:23:41.278Z,37.4
2022-12-01T21:25:47.026Z,35.9
2022-12-01T21:27:52.749Z,37
2022-12-01T21:29:58.471Z,37.2
2022-12-01T21:32:04.199Z,38.1
2022-12-01T21:34:09.941Z,38
2022-12-01T21:36:18.753Z,39.7
2022-12-01T21:38:24.471Z,38.9
2022-12-01T21:40:30.192Z,37.9
2022-12-01T21:42:35.914Z,37.5
2022-12-01T21:46:47.396Z,38.5
2022-12-01T21:48:53.124Z,40.1
2022-12-01T21:51:01.921Z,40.6
2022-12-01T21:53:07.665Z,40.4
2022-12-01T21:57:19.123Z,40.8
2022-12-01T22:03:36.284Z,37.8
2022-12-01T22:06:01.145Z,40.1
2022-12-01T22:07:50.840Z,37.9
2022-12-01T22:09:56.529Z,39.5
2022-12-01T22:11:00.925Z,38.4
2022-12-01T22:15:12.398Z,36.6
2022-12-01T22:17:18.063Z,37.4
2022-12-01T22:19:26.892Z,41.8
2022-12-01T22:21:32.600Z,37.7
2022-12-01T22:23:38.340Z,39
2022-12-01T22:27:49.804Z,36.6
2022-12-01T22:32:01.231Z,39.3
2022-12-01T22:34:10.029Z,41.3
2022-12-01T22:40:27.186Z,35.5
2022-12-01T22:44:38.635Z,38.2
2022-12-01T22:46:44.396Z,37.7
2022-12-01T22:50:58.891Z,40.6
2022-12-01T22:55:10.317Z,35.5
2022-12-01T22:59:21.766Z,39.7
2022-12-01T23:01:27.521Z,39.3
2022-12-01T23:03:36.382Z,38.9
2022-12-01T23:05:43.597Z,41.2
2022-12-01T23:07:49.305Z,39.4
2022-12-01T23:08:53.618Z,34.6
2022-12-01T23:10:59.335Z,34.2
2022-12-01T23:13:05.051Z,35.1
2022-12-01T23:15:10.783Z,35.6
2022-12-01T23:17:19.582Z,36.6
2022-12-01T23:19:25.298Z,34.3
2022-12-01T23:21:30.982Z,36.6
2022-12-01T23:25:42.436Z,35.7
2022-12-01T23:27:48.140Z,35.1
2022-12-01T23:29:53.847Z,36.6
2022-12-01T23:32:02.622Z,36.4
2022-12-01T23:34:08.345Z,35.6
2022-12-01T23:36:14.089Z,35.6
2022-12-01T23:38:19.799Z,36.2
2022-12-01T23:40:25.487Z,39.3
2022-12-01T23:42:31.214Z,34.6
2022-12-01T23:44:36.916Z,38.4
2022-12-01T23:48:51.441Z,38.1
2022-12-01T23:50:57.127Z,36.2
2022-12-01T23:53:02.841Z,34.4
2022-12-01T23:55:08.548Z,34.3
2022-12-01T23:57:14.299Z,33.7
2022-12-01T23:59:19.975Z,35.1
